sensor_id;sensor_type;location;lat;lon;timestamp;pressure;altitude;pressure_sealevel;temperature;humidity
64139;BME280;50435;43.700;-79.318;2023-05-21T00:00:13;99939.40;;;16.53;36.98
64139;BME280;50435;43.700;-79.318;2023-05-21T00:02:40;99941.75;;;16.34;37.36
64139;BME280;50435;43.700;-79.318;2023-05-21T00:05:08;99944.75;;;15.62;37.10
64139;BME280;50435;43.700;-79.318;2023-05-21T00:07:35;99943.98;;;16.36;36.92
64139;BME280;50435;43.700;-79.318;2023-05-21T00:10:03;99945.98;;;16.20;37.29
64139;BME280;50435;43.700;-79.318;2023-05-21T00:12:30;99940.90;;;16.67;37.18
64139;BME280;50435;43.700;-79.318;2023-05-21T00:14:58;99940.89;;;16.49;37.48
64139;BME280;50435;43.700;-79.318;2023-05-21T00:17:26;99941.05;;;16.15;37.77
64139;BME280;50435;43.700;-79.318;2023-05-21T00:19:54;99944.85;;;16.55;37.41
64139;BME280;50435;43.700;-79.318;2023-05-21T00:22:22;99944.77;;;16.27;37.88
64139;BME280;50435;43.700;-79.318;2023-05-21T00:24:50;99948.76;;;16.05;38.41
64139;BME280;50435;43.700;-79.318;2023-05-21T00:27:17;99944.67;;;15.78;38.20
64139;BME280;50435;43.700;-79.318;2023-05-21T00:29:45;99944.51;;;16.12;38.26
64139;BME280;50435;43.700;-79.318;2023-05-21T00:32:13;99951.81;;;15.77;38.17
64139;BME280;50435;43.700;-79.318;2023-05-21T00:34:41;99954.15;;;16.25;37.84
64139;BME280;50435;43.700;-79.318;2023-05-21T00:37:09;99953.32;;;15.05;37.88
64139;BME280;50435;43.700;-79.318;2023-05-21T00:39:36;99953.93;;;16.13;38.08
64139;BME280;50435;43.700;-79.318;2023-05-21T00:42:04;99951.60;;;15.49;37.96
64139;BME280;50435;43.700;-79.318;2023-05-21T00:44:32;99949.94;;;16.13;38.19
64139;BME280;50435;43.700;-79.318;2023-05-21T00:46:59;99947.60;;;16.56;37.95
64139;BME280;50435;43.700;-79.318;2023-05-21T00:49:28;99946.08;;;16.02;38.01
64139;BME280;50435;43.700;-79.318;2023-05-21T00:51:56;99950.02;;;15.93;38.24
64139;BME280;50435;43.700;-79.318;2023-05-21T00:54:23;99945.06;;;15.68;38.22
64139;BME280;50435;43.700;-79.318;2023-05-21T00:56:51;99947.66;;;16.20;38.30
64139;BME280;50435;43.700;-79.318;2023-05-21T00:59:19;99949.45;;;15.38;38.75
64139;BME280;50435;43.700;-79.318;2023-05-21T01:01:47;99951.71;;;16.02;38.44
64139;BME280;50435;43.700;-79.318;2023-05-21T01:04:15;99945.31;;;14.25;38.55
64139;BME280;50435;43.700;-79.318;2023-05-21T01:06:42;99948.11;;;16.06;38.72
64139;BME280;50435;43.700;-79.318;2023-05-21T01:09:10;99949.67;;;14.98;38.45
64139;BME280;50435;43.700;-79.318;2023-05-21T01:11:39;99949.13;;;15.88;38.68
64139;BME280;50435;43.700;-79.318;2023-05-21T01:14:09;99952.66;;;14.62;38.63
64139;BME280;50435;43.700;-79.318;2023-05-21T01:16:39;99954.10;;;15.66;38.69
64139;BME280;50435;43.700;-79.318;2023-05-21T01:19:08;99955.42;;;14.65;38.58
64139;BME280;50435;43.700;-79.318;2023-05-21T01:21:41;99960.94;;;15.89;38.80
64139;BME280;50435;43.700;-79.318;2023-05-21T01:24:11;99961.47;;;14.00;38.73
64139;BME280;50435;43.700;-79.318;2023-05-21T01:26:38;99967.88;;;15.60;38.96
64139;BME280;50435;43.700;-79.318;2023-05-21T01:29:06;99964.62;;;14.62;38.85
64139;BME280;50435;43.700;-79.318;2023-05-21T01:31:41;99964.37;;;15.33;38.73
64139;BME280;50435;43.700;-79.318;2023-05-21T01:34:13;99965.94;;;14.34;38.83
64139;BME280;50435;43.700;-79.318;2023-05-21T01:36:49;99961.11;;;15.88;38.77
64139;BME280;50435;43.700;-79.318;2023-05-21T01:39:23;99961.36;;;14.90;38.71
64139;BME280;50435;43.700;-79.318;2023-05-21T01:41:54;99959.72;;;16.03;38.86
64139;BME280;50435;43.700;-79.318;2023-05-21T01:44:23;99964.64;;;15.05;38.91
64139;BME280;50435;43.700;-79.318;2023-05-21T01:46:53;99966.55;;;15.43;38.69
64139;BME280;50435;43.700;-79.318;2023-05-21T01:49:23;99970.55;;;15.36;38.68
64139;BME280;50435;43.700;-79.318;2023-05-21T01:51:50;99968.72;;;15.44;39.15
64139;BME280;50435;43.700;-79.318;2023-05-21T01:54:18;99967.05;;;15.47;39.04
64139;BME280;50435;43.700;-79.318;2023-05-21T01:56:46;99967.75;;;15.40;39.60
64139;BME280;50435;43.700;-79.318;2023-05-21T01:59:14;99971.96;;;13.92;39.55
64139;BME280;50435;43.700;-79.318;2023-05-21T02:01:41;99969.84;;;15.51;39.02
64139;BME280;50435;43.700;-79.318;2023-05-21T02:04:09;99979.53;;;14.29;38.75
64139;BME280;50435;43.700;-79.318;2023-05-21T02:06:37;99987.03;;;15.69;38.77
64139;BME280;50435;43.700;-79.318;2023-05-21T02:09:05;99981.97;;;14.62;39.21
64139;BME280;50435;43.700;-79.318;2023-05-21T02:11:33;99989.22;;;15.33;39.03
64139;BME280;50435;43.700;-79.318;2023-05-21T02:14:00;99995.33;;;15.19;39.30
64139;BME280;50435;43.700;-79.318;2023-05-21T02:16:28;99998.25;;;15.11;39.45
64139;BME280;50435;43.700;-79.318;2023-05-21T02:18:56;100000.57;;;15.34;39.36
64139;BME280;50435;43.700;-79.318;2023-05-21T02:21:23;100003.35;;;14.84;39.46
64139;BME280;50435;43.700;-79.318;2023-05-21T02:23:51;100002.45;;;15.10;39.85
64139;BME280;50435;43.700;-79.318;2023-05-21T02:26:19;99998.07;;;14.75;39.62
64139;BME280;50435;43.700;-79.318;2023-05-21T02:28:47;99989.85;;;15.06;39.96
64139;BME280;50435;43.700;-79.318;2023-05-21T02:31:15;99986.15;;;14.46;39.68
64139;BME280;50435;43.700;-79.318;2023-05-21T02:33:42;99990.85;;;15.14;40.01
64139;BME280;50435;43.700;-79.318;2023-05-21T02:36:10;99986.58;;;13.60;39.87
64139;BME280;50435;43.700;-79.318;2023-05-21T02:38:38;99981.18;;;14.99;40.06
64139;BME280;50435;43.700;-79.318;2023-05-21T02:41:06;99984.57;;;14.02;39.86
64139;BME280;50435;43.700;-79.318;2023-05-21T02:43:33;99993.07;;;14.71;39.93
64139;BME280;50435;43.700;-79.318;2023-05-21T02:46:01;99988.69;;;14.71;40.00
64139;BME280;50435;43.700;-79.318;2023-05-21T02:48:29;99987.38;;;14.97;39.93
64139;BME280;50435;43.700;-79.318;2023-05-21T02:50:57;99986.50;;;14.93;39.82
64139;BME280;50435;43.700;-79.318;2023-05-21T02:53:25;99987.75;;;14.83;39.81
64139;BME280;50435;43.700;-79.318;2023-05-21T02:55:52;99988.08;;;15.36;39.66
64139;BME280;50435;43.700;-79.318;2023-05-21T02:58:20;99980.62;;;14.91;39.97
64139;BME280;50435;43.700;-79.318;2023-05-21T03:00:48;99980.83;;;15.17;40.01
64139;BME280;50435;43.700;-79.318;2023-05-21T03:03:16;99975.94;;;14.18;39.90
64139;BME280;50435;43.700;-79.318;2023-05-21T03:05:44;99979.27;;;15.26;40.17
64139;BME280;50435;43.700;-79.318;2023-05-21T03:08:11;99980.88;;;13.13;40.55
64139;BME280;50435;43.700;-79.318;2023-05-21T03:10:39;99979.97;;;14.74;40.18
64139;BME280;50435;43.700;-79.318;2023-05-21T03:13:07;99978.48;;;13.74;40.36
64139;BME280;50435;43.700;-79.318;2023-05-21T03:15:34;99979.72;;;14.52;40.64
64139;BME280;50435;43.700;-79.318;2023-05-21T03:18:02;99980.45;;;14.14;40.38
64139;BME280;50435;43.700;-79.318;2023-05-21T03:20:30;99976.12;;;14.89;40.41
64139;BME280;50435;43.700;-79.318;2023-05-21T03:22:58;99973.25;;;14.97;40.59
64139;BME280;50435;43.700;-79.318;2023-05-21T03:25:26;99975.10;;;14.58;40.29
64139;BME280;50435;43.700;-79.318;2023-05-21T03:27:54;99980.01;;;14.88;40.35
64139;BME280;50435;43.700;-79.318;2023-05-21T03:30:21;99982.22;;;14.76;40.37
64139;BME280;50435;43.700;-79.318;2023-05-21T03:32:49;99985.51;;;15.01;40.41
64139;BME280;50435;43.700;-79.318;2023-05-21T03:35:17;99977.02;;;14.50;40.50
64139;BME280;50435;43.700;-79.318;2023-05-21T03:37:45;99982.09;;;14.89;40.58
64139;BME280;50435;43.700;-79.318;2023-05-21T03:40:13;99982.38;;;12.89;40.72
64139;BME280;50435;43.700;-79.318;2023-05-21T03:42:40;99976.05;;;14.78;40.26
64139;BME280;50435;43.700;-79.318;2023-05-21T03:45:09;99978.58;;;13.47;40.51
64139;BME280;50435;43.700;-79.318;2023-05-21T03:47:36;99973.50;;;14.69;40.39
64139;BME280;50435;43.700;-79.318;2023-05-21T03:50:05;99976.60;;;13.94;40.35
64139;BME280;50435;43.700;-79.318;2023-05-21T03:52:32;99979.27;;;14.65;40.44
64139;BME280;50435;43.700;-79.318;2023-05-21T03:55:00;99987.08;;;14.77;40.40
64139;BME280;50435;43.700;-79.318;2023-05-21T03:57:28;99987.98;;;14.25;40.69
64139;BME280;50435;43.700;-79.318;2023-05-21T03:59:56;99989.53;;;14.65;40.30
64139;BME280;50435;43.700;-79.318;2023-05-21T04:02:25;99985.95;;;14.22;40.37
64139;BME280;50435;43.700;-79.318;2023-05-21T04:04:54;99981.96;;;14.70;40.29
64139;BME280;50435;43.700;-79.318;2023-05-21T04:07:21;99988.70;;;13.98;40.55
64139;BME280;50435;43.700;-79.318;2023-05-21T04:09:49;99989.54;;;14.58;40.13
64139;BME280;50435;43.700;-79.318;2023-05-21T04:12:17;99996.82;;;14.06;40.64
64139;BME280;50435;43.700;-79.318;2023-05-21T04:14:45;99998.33;;;14.46;40.77
64139;BME280;50435;43.700;-79.318;2023-05-21T04:17:12;100003.51;;;13.70;40.97
64139;BME280;50435;43.700;-79.318;2023-05-21T04:19:40;100004.11;;;14.75;40.58
64139;BME280;50435;43.700;-79.318;2023-05-21T04:22:09;100004.80;;;12.87;40.56
64139;BME280;50435;43.700;-79.318;2023-05-21T04:24:36;100006.81;;;14.86;40.60
64139;BME280;50435;43.700;-79.318;2023-05-21T04:27:05;100007.15;;;13.58;40.56
64139;BME280;50435;43.700;-79.318;2023-05-21T04:29:32;100010.72;;;14.57;40.41
64139;BME280;50435;43.700;-79.318;2023-05-21T04:32:00;100014.76;;;14.78;40.56
64139;BME280;50435;43.700;-79.318;2023-05-21T04:34:27;100009.03;;;14.28;40.29
64139;BME280;50435;43.700;-79.318;2023-05-21T04:36:55;100008.24;;;14.70;40.64
64139;BME280;50435;43.700;-79.318;2023-05-21T04:39:22;100008.07;;;14.46;40.75
64139;BME280;50435;43.700;-79.318;2023-05-21T04:41:50;100009.88;;;14.79;40.62
64139;BME280;50435;43.700;-79.318;2023-05-21T04:44:18;100014.18;;;14.32;40.46
64139;BME280;50435;43.700;-79.318;2023-05-21T04:46:46;100018.36;;;14.37;40.95
64139;BME280;50435;43.700;-79.318;2023-05-21T04:49:14;100014.74;;;14.81;40.58
64139;BME280;50435;43.700;-79.318;2023-05-21T04:51:42;100016.19;;;14.66;40.85
64139;BME280;50435;43.700;-79.318;2023-05-21T04:54:09;100019.50;;;13.26;40.55
64139;BME280;50435;43.700;-79.318;2023-05-21T04:56:37;100017.16;;;14.74;40.80
64139;BME280;50435;43.700;-79.318;2023-05-21T04:59:05;100010.16;;;13.58;40.95
64139;BME280;50435;43.700;-79.318;2023-05-21T05:01:32;100008.82;;;14.38;40.69
64139;BME280;50435;43.700;-79.318;2023-05-21T05:04:00;100013.10;;;14.61;40.92
64139;BME280;50435;43.700;-79.318;2023-05-21T05:06:27;100010.63;;;14.03;40.80
64139;BME280;50435;43.700;-79.318;2023-05-21T05:08:55;100011.30;;;14.56;40.64
64139;BME280;50435;43.700;-79.318;2023-05-21T05:11:22;100008.65;;;14.24;40.67
64139;BME280;50435;43.700;-79.318;2023-05-21T05:13:51;100012.94;;;14.74;40.63
64139;BME280;50435;43.700;-79.318;2023-05-21T05:16:18;100009.69;;;13.94;41.15
64139;BME280;50435;43.700;-79.318;2023-05-21T05:18:46;100004.50;;;14.50;40.64
64139;BME280;50435;43.700;-79.318;2023-05-21T05:21:14;100004.94;;;12.69;40.56
64139;BME280;50435;43.700;-79.318;2023-05-21T05:23:41;100010.84;;;14.15;40.78
64139;BME280;50435;43.700;-79.318;2023-05-21T05:26:10;100017.68;;;13.44;40.35
64139;BME280;50435;43.700;-79.318;2023-05-21T05:28:37;100026.08;;;14.63;40.68
64139;BME280;50435;43.700;-79.318;2023-05-21T05:31:05;100027.88;;;13.40;40.62
64139;BME280;50435;43.700;-79.318;2023-05-21T05:33:33;100031.30;;;14.21;40.79
64139;BME280;50435;43.700;-79.318;2023-05-21T05:36:00;100029.69;;;14.55;41.57
64139;BME280;50435;43.700;-79.318;2023-05-21T05:38:28;100029.54;;;14.49;41.20
64139;BME280;50435;43.700;-79.318;2023-05-21T05:40:56;100034.28;;;14.64;41.33
64139;BME280;50435;43.700;-79.318;2023-05-21T05:43:24;100032.51;;;14.68;41.24
64139;BME280;50435;43.700;-79.318;2023-05-21T05:45:52;100031.48;;;14.53;40.98
64139;BME280;50435;43.700;-79.318;2023-05-21T05:48:20;100029.42;;;13.80;41.21
64139;BME280;50435;43.700;-79.318;2023-05-21T05:50:47;100029.88;;;14.49;41.49
64139;BME280;50435;43.700;-79.318;2023-05-21T05:53:15;100025.81;;;13.30;41.06
64139;BME280;50435;43.700;-79.318;2023-05-21T05:55:43;100025.55;;;14.48;41.15
64139;BME280;50435;43.700;-79.318;2023-05-21T05:58:11;100028.20;;;13.32;41.33
64139;BME280;50435;43.700;-79.318;2023-05-21T06:00:39;100031.19;;;14.13;41.73
64139;BME280;50435;43.700;-79.318;2023-05-21T06:03:06;100035.86;;;13.38;42.10
64139;BME280;50435;43.700;-79.318;2023-05-21T06:05:34;100035.48;;;14.38;42.25
64139;BME280;50435;43.700;-79.318;2023-05-21T06:08:02;100040.08;;;13.88;42.37
64139;BME280;50435;43.700;-79.318;2023-05-21T06:10:29;100039.78;;;14.19;42.61
64139;BME280;50435;43.700;-79.318;2023-05-21T06:12:57;100039.98;;;14.45;42.75
64139;BME280;50435;43.700;-79.318;2023-05-21T06:15:25;100039.63;;;13.88;43.30
64139;BME280;50435;43.700;-79.318;2023-05-21T06:17:52;100038.15;;;14.48;43.27
64139;BME280;50435;43.700;-79.318;2023-05-21T06:20:20;100039.25;;;14.64;43.32
64139;BME280;50435;43.700;-79.318;2023-05-21T06:22:47;100035.88;;;14.06;43.98
64139;BME280;50435;43.700;-79.318;2023-05-21T06:25:15;100039.90;;;13.09;43.35
64139;BME280;50435;43.700;-79.318;2023-05-21T06:27:43;100041.35;;;14.52;43.29
64139;BME280;50435;43.700;-79.318;2023-05-21T06:30:10;100036.98;;;14.00;43.56
64139;BME280;50435;43.700;-79.318;2023-05-21T06:32:38;100034.90;;;14.23;43.49
64139;BME280;50435;43.700;-79.318;2023-05-21T06:35:06;100041.73;;;13.39;43.30
64139;BME280;50435;43.700;-79.318;2023-05-21T06:37:34;100046.58;;;14.66;43.12
64139;BME280;50435;43.700;-79.318;2023-05-21T06:40:01;100056.17;;;14.08;43.38
64139;BME280;50435;43.700;-79.318;2023-05-21T06:42:28;100044.44;;;14.04;43.40
64139;BME280;50435;43.700;-79.318;2023-05-21T06:44:56;100039.93;;;14.45;43.72
64139;BME280;50435;43.700;-79.318;2023-05-21T06:47:24;100038.86;;;13.78;44.08
64139;BME280;50435;43.700;-79.318;2023-05-21T06:49:51;100041.93;;;14.25;44.27
64139;BME280;50435;43.700;-79.318;2023-05-21T06:52:18;100045.20;;;13.26;44.43
64139;BME280;50435;43.700;-79.318;2023-05-21T06:54:46;100050.05;;;14.21;43.71
64139;BME280;50435;43.700;-79.318;2023-05-21T06:57:14;100055.24;;;12.43;44.61
64139;BME280;50435;43.700;-79.318;2023-05-21T06:59:41;100051.35;;;14.14;44.42
64139;BME280;50435;43.700;-79.318;2023-05-21T07:02:09;100047.06;;;12.56;44.60
64139;BME280;50435;43.700;-79.318;2023-05-21T07:04:37;100043.01;;;13.83;44.49
64139;BME280;50435;43.700;-79.318;2023-05-21T07:07:05;100032.91;;;12.81;44.49
64139;BME280;50435;43.700;-79.318;2023-05-21T07:09:32;100030.48;;;13.66;44.58
64139;BME280;50435;43.700;-79.318;2023-05-21T07:12:00;100032.62;;;13.85;44.36
64139;BME280;50435;43.700;-79.318;2023-05-21T07:14:27;100030.58;;;13.72;44.38
64139;BME280;50435;43.700;-79.318;2023-05-21T07:16:54;100024.19;;;13.68;44.38
64139;BME280;50435;43.700;-79.318;2023-05-21T07:19:22;100018.19;;;13.37;44.50
64139;BME280;50435;43.700;-79.318;2023-05-21T07:21:49;100021.12;;;13.40;45.05
64139;BME280;50435;43.700;-79.318;2023-05-21T07:24:16;100024.81;;;12.15;44.43
64139;BME280;50435;43.700;-79.318;2023-05-21T07:26:44;100029.00;;;13.70;44.02
64139;BME280;50435;43.700;-79.318;2023-05-21T07:29:12;100030.88;;;12.11;43.95
64139;BME280;50435;43.700;-79.318;2023-05-21T07:31:40;100030.85;;;13.36;43.93
64139;BME280;50435;43.700;-79.318;2023-05-21T07:34:07;100031.22;;;13.49;44.50
64139;BME280;50435;43.700;-79.318;2023-05-21T07:36:35;100032.69;;;13.12;44.85
64139;BME280;50435;43.700;-79.318;2023-05-21T07:39:03;100033.22;;;12.53;44.48
64139;BME280;50435;43.700;-79.318;2023-05-21T07:41:30;100035.81;;;13.49;44.15
64139;BME280;50435;43.700;-79.318;2023-05-21T07:43:58;100033.71;;;13.50;44.10
64139;BME280;50435;43.700;-79.318;2023-05-21T07:46:26;100026.20;;;12.83;44.17
64139;BME280;50435;43.700;-79.318;2023-05-21T07:48:53;100020.78;;;13.48;44.11
64139;BME280;50435;43.700;-79.318;2023-05-21T07:51:21;100014.91;;;13.37;44.50
64139;BME280;50435;43.700;-79.318;2023-05-21T07:53:49;100016.60;;;13.22;44.74
64139;BME280;50435;43.700;-79.318;2023-05-21T07:56:16;100013.20;;;12.80;44.48
64139;BME280;50435;43.700;-79.318;2023-05-21T07:58:44;100012.90;;;13.29;44.44
64139;BME280;50435;43.700;-79.318;2023-05-21T08:01:12;100004.26;;;11.31;44.80
64139;BME280;50435;43.700;-79.318;2023-05-21T08:03:39;100004.80;;;13.26;44.54
64139;BME280;50435;43.700;-79.318;2023-05-21T08:06:07;100010.38;;;11.63;45.18
64139;BME280;50435;43.700;-79.318;2023-05-21T08:08:34;100015.11;;;13.08;45.16
64139;BME280;50435;43.700;-79.318;2023-05-21T08:11:02;100019.24;;;12.86;45.13
64139;BME280;50435;43.700;-79.318;2023-05-21T08:13:29;100023.60;;;13.04;45.33
64139;BME280;50435;43.700;-79.318;2023-05-21T08:15:56;100023.97;;;13.32;44.93
64139;BME280;50435;43.700;-79.318;2023-05-21T08:18:24;100026.16;;;13.07;45.03
64139;BME280;50435;43.700;-79.318;2023-05-21T08:20:52;100025.09;;;13.06;45.44
64139;BME280;50435;43.700;-79.318;2023-05-21T08:23:20;100026.78;;;12.48;45.80
64139;BME280;50435;43.700;-79.318;2023-05-21T08:25:47;100018.39;;;12.84;45.54
64139;BME280;50435;43.700;-79.318;2023-05-21T08:28:14;100012.05;;;11.95;45.33
64139;BME280;50435;43.700;-79.318;2023-05-21T08:30:42;100015.25;;;12.75;46.12
64139;BME280;50435;43.700;-79.318;2023-05-21T08:33:09;100015.40;;;11.26;46.17
64139;BME280;50435;43.700;-79.318;2023-05-21T08:35:37;100019.58;;;12.72;45.83
64139;BME280;50435;43.700;-79.318;2023-05-21T08:38:04;100020.66;;;12.09;45.97
64139;BME280;50435;43.700;-79.318;2023-05-21T08:40:33;100023.39;;;12.74;45.89
64139;BME280;50435;43.700;-79.318;2023-05-21T08:43:00;100025.97;;;13.08;45.64
64139;BME280;50435;43.700;-79.318;2023-05-21T08:45:31;100017.90;;;12.62;46.22
64139;BME280;50435;43.700;-79.318;2023-05-21T08:48:00;100013.57;;;13.18;45.84
64139;BME280;50435;43.700;-79.318;2023-05-21T08:50:28;100016.47;;;12.62;45.89
64139;BME280;50435;43.700;-79.318;2023-05-21T08:52:57;100012.41;;;12.58;46.84
64139;BME280;50435;43.700;-79.318;2023-05-21T08:55:25;100012.29;;;12.40;46.60
64139;BME280;50435;43.700;-79.318;2023-05-21T08:57:53;100014.05;;;12.55;46.93
64139;BME280;50435;43.700;-79.318;2023-05-21T09:00:21;100011.01;;;12.22;46.75
64139;BME280;50435;43.700;-79.318;2023-05-21T09:02:49;100010.62;;;12.23;46.93
64139;BME280;50435;43.700;-79.318;2023-05-21T09:05:17;100012.63;;;11.97;47.11
64139;BME280;50435;43.700;-79.318;2023-05-21T09:07:49;100012.70;;;12.33;47.52
64139;BME280;50435;43.700;-79.318;2023-05-21T09:10:24;100013.30;;;12.11;47.29
64139;BME280;50435;43.700;-79.318;2023-05-21T09:12:54;100013.16;;;12.35;48.04
64139;BME280;50435;43.700;-79.318;2023-05-21T09:15:21;100014.13;;;12.03;47.50
64139;BME280;50435;43.700;-79.318;2023-05-21T09:17:49;100017.06;;;11.94;47.47
64139;BME280;50435;43.700;-79.318;2023-05-21T09:20:17;100015.91;;;12.04;47.54
64139;BME280;50435;43.700;-79.318;2023-05-21T09:22:46;100014.97;;;12.26;47.42
64139;BME280;50435;43.700;-79.318;2023-05-21T09:25:15;100017.08;;;10.85;47.30
64139;BME280;50435;43.700;-79.318;2023-05-21T09:27:43;100007.57;;;11.98;47.47
64139;BME280;50435;43.700;-79.318;2023-05-21T09:30:12;100007.28;;;11.83;47.85
64139;BME280;50435;43.700;-79.318;2023-05-21T09:32:41;100011.52;;;12.20;47.39
64139;BME280;50435;43.700;-79.318;2023-05-21T09:35:10;100006.76;;;10.82;47.86
64139;BME280;50435;43.700;-79.318;2023-05-21T09:37:39;100013.67;;;12.35;47.45
64139;BME280;50435;43.700;-79.318;2023-05-21T09:40:10;100015.15;;;10.90;47.47
64139;BME280;50435;43.700;-79.318;2023-05-21T09:42:39;100018.18;;;11.97;48.09
64139;BME280;50435;43.700;-79.318;2023-05-21T09:45:08;100022.35;;;10.43;47.99
64139;BME280;50435;43.700;-79.318;2023-05-21T09:47:40;100019.65;;;12.17;48.09
64139;BME280;50435;43.700;-79.318;2023-05-21T09:50:09;100022.88;;;10.47;47.58
64139;BME280;50435;43.700;-79.318;2023-05-21T09:52:37;100027.70;;;12.34;47.39
64139;BME280;50435;43.700;-79.318;2023-05-21T09:55:07;100029.78;;;11.02;48.24
64139;BME280;50435;43.700;-79.318;2023-05-21T09:57:40;100026.40;;;12.03;48.35
64139;BME280;50435;43.700;-79.318;2023-05-21T10:00:08;100024.64;;;10.50;48.27
64139;BME280;50435;43.700;-79.318;2023-05-21T10:02:37;100028.71;;;12.02;47.97
64139;BME280;50435;43.700;-79.318;2023-05-21T10:05:08;100031.75;;;10.94;47.64
64139;BME280;50435;43.700;-79.318;2023-05-21T10:07:36;100033.44;;;12.05;48.02
64139;BME280;50435;43.700;-79.318;2023-05-21T10:10:06;100037.11;;;11.06;47.82
64139;BME280;50435;43.700;-79.318;2023-05-21T10:12:39;100039.49;;;12.15;48.08
64139;BME280;50435;43.700;-79.318;2023-05-21T10:15:10;100050.48;;;10.74;48.12
64139;BME280;50435;43.700;-79.318;2023-05-21T10:17:38;100056.51;;;11.63;48.25
64139;BME280;50435;43.700;-79.318;2023-05-21T10:20:09;100061.57;;;10.98;48.04
64139;BME280;50435;43.700;-79.318;2023-05-21T10:22:37;100065.03;;;11.56;48.01
64139;BME280;50435;43.700;-79.318;2023-05-21T10:25:06;100066.94;;;10.72;47.40
64139;BME280;50435;43.700;-79.318;2023-05-21T10:27:34;100072.55;;;11.62;47.45
64139;BME280;50435;43.700;-79.318;2023-05-21T10:30:04;100079.83;;;11.66;48.13
64139;BME280;50435;43.700;-79.318;2023-05-21T10:32:32;100078.21;;;11.33;47.87
64139;BME280;50435;43.700;-79.318;2023-05-21T10:35:00;100081.15;;;11.68;48.09
64139;BME280;50435;43.700;-79.318;2023-05-21T10:37:28;100087.71;;;11.57;47.29
64139;BME280;50435;43.700;-79.318;2023-05-21T10:39:55;100085.62;;;12.10;47.51
64139;BME280;50435;43.700;-79.318;2023-05-21T10:42:46;100087.71;;;11.65;47.32
64139;BME280;50435;43.700;-79.318;2023-05-21T10:45:24;100088.93;;;11.17;47.14
64139;BME280;50435;43.700;-79.318;2023-05-21T10:48:11;100088.40;;;12.27;47.04
64139;BME280;50435;43.700;-79.318;2023-05-21T10:50:55;100099.42;;;12.15;47.07
64139;BME280;50435;43.700;-79.318;2023-05-21T10:53:36;100101.15;;;11.60;46.88
64139;BME280;50435;43.700;-79.318;2023-05-21T10:56:15;100107.39;;;11.06;46.83
64139;BME280;50435;43.700;-79.318;2023-05-21T10:59:09;100112.70;;;12.45;46.68
64139;BME280;50435;43.700;-79.318;2023-05-21T11:01:38;100117.36;;;12.05;47.36
64139;BME280;50435;43.700;-79.318;2023-05-21T11:04:06;100122.20;;;11.05;46.60
64139;BME280;50435;43.700;-79.318;2023-05-21T11:06:34;100119.57;;;12.35;46.29
64139;BME280;50435;43.700;-79.318;2023-05-21T11:09:10;100123.58;;;11.93;46.05
64139;BME280;50435;43.700;-79.318;2023-05-21T11:11:40;100125.29;;;12.53;45.60
64139;BME280;50435;43.700;-79.318;2023-05-21T11:14:27;100127.50;;;11.47;46.52
64139;BME280;50435;43.700;-79.318;2023-05-21T11:16:56;100126.52;;;12.33;46.78
64139;BME280;50435;43.700;-79.318;2023-05-21T11:19:34;100131.18;;;12.30;47.83
64139;BME280;50435;43.700;-79.318;2023-05-21T11:22:04;100131.55;;;12.30;47.04
64139;BME280;50435;43.700;-79.318;2023-05-21T11:24:36;100137.05;;;12.15;47.83
64139;BME280;50435;43.700;-79.318;2023-05-21T11:27:04;100142.48;;;11.60;47.82
64139;BME280;50435;43.700;-79.318;2023-05-21T11:29:41;100145.49;;;12.46;47.94
64139;BME280;50435;43.700;-79.318;2023-05-21T11:32:09;100148.56;;;11.16;48.34
64139;BME280;50435;43.700;-79.318;2023-05-21T11:34:40;100153.67;;;12.73;47.98
64139;BME280;50435;43.700;-79.318;2023-05-21T11:37:25;100157.83;;;11.41;48.51
64139;BME280;50435;43.700;-79.318;2023-05-21T11:39:53;100161.51;;;12.72;47.65
64139;BME280;50435;43.700;-79.318;2023-05-21T11:42:30;100161.43;;;12.24;47.63
64139;BME280;50435;43.700;-79.318;2023-05-21T11:44:59;100163.99;;;13.07;47.12
64139;BME280;50435;43.700;-79.318;2023-05-21T11:47:28;100167.13;;;12.47;46.40
64139;BME280;50435;43.700;-79.318;2023-05-21T11:49:58;100165.60;;;13.00;46.46
64139;BME280;50435;43.700;-79.318;2023-05-21T11:52:27;100163.77;;;12.55;45.21
64139;BME280;50435;43.700;-79.318;2023-05-21T11:54:56;100166.93;;;13.11;45.53
64139;BME280;50435;43.700;-79.318;2023-05-21T11:57:27;100169.12;;;12.74;44.42
64139;BME280;50435;43.700;-79.318;2023-05-21T11:59:55;100171.21;;;13.16;43.99
64139;BME280;50435;43.700;-79.318;2023-05-21T12:02:24;100174.35;;;12.99;43.36
64139;BME280;50435;43.700;-79.318;2023-05-21T12:04:52;100174.34;;;13.71;43.69
64139;BME280;50435;43.700;-79.318;2023-05-21T12:07:20;100177.97;;;13.03;43.16
64139;BME280;50435;43.700;-79.318;2023-05-21T12:09:49;100178.77;;;13.56;43.20
64139;BME280;50435;43.700;-79.318;2023-05-21T12:12:19;100185.99;;;12.57;42.97
64139;BME280;50435;43.700;-79.318;2023-05-21T12:14:48;100191.24;;;13.67;42.68
64139;BME280;50435;43.700;-79.318;2023-05-21T12:17:17;100193.66;;;12.88;42.49
64139;BME280;50435;43.700;-79.318;2023-05-21T12:19:45;100198.43;;;13.73;41.98
64139;BME280;50435;43.700;-79.318;2023-05-21T12:22:14;100198.23;;;11.99;42.07
64139;BME280;50435;43.700;-79.318;2023-05-21T12:24:42;100194.96;;;13.79;42.40
64139;BME280;50435;43.700;-79.318;2023-05-21T12:27:11;100198.62;;;12.17;41.80
64139;BME280;50435;43.700;-79.318;2023-05-21T12:29:40;100201.97;;;13.82;41.64
64139;BME280;50435;43.700;-79.318;2023-05-21T12:32:09;100203.21;;;12.07;41.91
64139;BME280;50435;43.700;-79.318;2023-05-21T12:34:39;100204.36;;;13.55;41.95
64139;BME280;50435;43.700;-79.318;2023-05-21T12:37:07;100204.09;;;12.81;41.43
64139;BME280;50435;43.700;-79.318;2023-05-21T12:39:39;100211.12;;;13.79;41.08